Time;durP1;ratioP1;P1;durP2;ratioP2;P2;SDS_P1;SDS_P2;PMS_P1;PMS_P2;Temp;Humidity;BMP_temperature;BMP_pressure;BME280_temperature;BME280_humidity;BME280_pressure;Samples;Min_cycle;Max_cycle;Signal;HPM_P1;HPM_P2
2023/08/30 00:01:15;;;;;;;18.30;11.20;;;;;;;25.77;100.00;98941.69;109366;1251;59004;-74
2023/08/30 00:03:42;;;;;;;18.20;10.90;;;;;;;25.74;100.00;98940.14;109415;1251;59036;-76
2023/08/30 00:06:10;;;;;;;15.90;11.60;;;;;;;25.73;100.00;98942.08;109386;1252;74704;-74
2023/08/30 00:08:38;;;;;;;15.60;11.20;;;;;;;25.71;100.00;98941.91;109411;1251;70930;-74
2023/08/30 00:11:05;;;;;;;20.10;11.90;;;;;;;25.68;100.00;98943.48;109399;1251;73241;-74
2023/08/30 00:13:33;;;;;;;15.80;11.20;;;;;;;25.66;100.00;98944.65;109412;1251;59176;-73
2023/08/30 00:16:02;;;;;;;12.50;10.60;;;;;;;25.63;100.00;98947.64;109388;1251;59945;-74
2023/08/30 00:18:30;;;;;;;19.80;10.60;;;;;;;25.61;100.00;98947.05;109427;1251;75410;-74
2023/08/30 00:20:58;;;;;;;16.40;11.20;;;;;;;25.57;100.00;98949.44;109388;1251;70924;-74
2023/08/30 00:23:25;;;;;;;19.40;11.50;;;;;;;25.55;100.00;98948.09;109354;1251;72782;-73
2023/08/30 00:25:53;;;;;;;15.10;11.50;;;;;;;25.52;100.00;98949.09;109395;1251;60130;-73
2023/08/30 00:28:20;;;;;;;16.60;11.10;;;;;;;25.51;100.00;98953.02;109392;1251;58928;-74
2023/08/30 00:30:53;;;;;;;14.60;10.80;;;;;;;25.49;100.00;98955.98;109266;1251;73330;-74
2023/08/30 00:33:21;;;;;;;14.40;11.40;;;;;;;25.46;100.00;98960.04;109421;1251;70963;-74
2023/08/30 00:35:56;;;;;;;17.00;11.00;;;;;;;25.44;100.00;98964.08;109263;1251;72473;-74
2023/08/30 00:38:23;;;;;;;15.80;11.30;;;;;;;25.41;100.00;98967.90;109234;1251;59218;-73
2023/08/30 00:40:52;;;;;;;19.10;11.20;;;;;;;25.38;100.00;98970.88;109407;1251;58874;-74
2023/08/30 00:43:20;;;;;;;17.70;11.10;;;;;;;25.36;100.00;98974.02;109277;1251;72850;-73
2023/08/30 00:45:47;;;;;;;13.80;11.30;;;;;;;25.34;100.00;98973.98;109397;1251;70812;-73
2023/08/30 00:48:16;;;;;;;15.00;11.10;;;;;;;25.34;100.00;98973.18;109415;1251;73100;-74
2023/08/30 00:50:44;;;;;;;17.80;10.90;;;;;;;25.32;100.00;98971.44;108964;1251;383316;-73
2023/08/30 00:53:11;;;;;;;16.60;10.50;;;;;;;25.30;100.00;98968.75;109420;1252;59761;-74
2023/08/30 00:55:39;;;;;;;18.10;11.40;;;;;;;25.29;100.00;98974.23;109280;1251;75132;-74
2023/08/30 00:58:07;;;;;;;17.50;11.40;;;;;;;25.27;100.00;98977.12;109427;1251;69736;-73
2023/08/30 01:00:35;;;;;;;17.10;11.30;;;;;;;25.25;100.00;98978.97;109408;1252;71257;-74
2023/08/30 01:03:02;;;;;;;13.10;11.00;;;;;;;25.21;100.00;98981.58;109407;1251;60082;-74
2023/08/30 01:05:30;;;;;;;13.30;11.10;;;;;;;25.18;100.00;98982.81;109332;1251;59009;-73
2023/08/30 01:07:57;;;;;;;16.10;11.50;;;;;;;25.15;100.00;98979.18;109443;1251;73376;-73
2023/08/30 01:10:36;;;;;;;17.10;11.70;;;;;;;25.12;100.00;98976.23;109398;1251;70919;-73
2023/08/30 01:13:07;;;;;;;14.80;11.40;;;;;;;25.10;100.00;98981.38;109259;1251;72669;-74
2023/08/30 01:15:35;;;;;;;14.10;11.50;;;;;;;25.06;100.00;98983.73;109295;1251;58968;-74
2023/08/30 01:18:04;;;;;;;14.10;11.50;;;;;;;25.03;100.00;98981.20;109402;1251;60042;-74
2023/08/30 01:20:33;;;;;;;18.30;11.40;;;;;;;24.99;100.00;98977.78;109441;1251;74688;-74
2023/08/30 01:23:22;;;;;;;14.40;10.40;;;;;;;24.95;100.00;98981.66;109270;1251;71385;-74
2023/08/30 01:25:52;;;;;;;14.90;10.80;;;;;;;24.92;100.00;98981.80;109433;1251;63713;-74
2023/08/30 01:28:24;;;;;;;19.40;11.30;;;;;;;24.90;100.00;98983.38;109284;1251;58960;-74
2023/08/30 01:30:54;;;;;;;17.20;12.00;;;;;;;24.89;100.00;98980.81;109280;1251;60120;-74
2023/08/30 01:33:22;;;;;;;18.90;11.70;;;;;;;24.88;100.00;98983.50;109319;1251;74626;-73
2023/08/30 01:35:51;;;;;;;17.50;11.40;;;;;;;24.84;100.00;98981.65;109391;1251;69949;-74
2023/08/30 01:38:19;;;;;;;16.10;11.70;;;;;;;24.82;100.00;98982.39;109350;1251;72639;-74
2023/08/30 01:40:47;;;;;;;14.60;11.50;;;;;;;24.79;100.00;98982.53;109372;1251;60053;-74
2023/08/30 01:43:15;;;;;;;15.70;11.10;;;;;;;24.77;100.00;98984.92;109287;1251;59181;-75
2023/08/30 01:45:43;;;;;;;25.40;12.30;;;;;;;24.75;100.00;98988.15;109288;1251;74768;-74
2023/08/30 01:48:12;;;;;;;18.30;11.20;;;;;;;24.73;100.00;98983.70;109408;1251;69878;-74
2023/08/30 01:50:43;;;;;;;17.20;11.90;;;;;;;24.70;100.00;98984.88;109431;1251;72664;-74
2023/08/30 01:53:11;;;;;;;14.00;11.80;;;;;;;24.69;100.00;98982.35;109387;1251;59391;-74
2023/08/30 01:55:40;;;;;;;14.80;12.20;;;;;;;24.68;100.00;98982.98;109403;1251;59107;-73
2023/08/30 01:58:07;;;;;;;20.80;11.50;;;;;;;24.67;100.00;98985.42;109251;1251;75646;-74
2023/08/30 02:00:36;;;;;;;18.40;12.10;;;;;;;24.65;100.00;98980.74;109326;1251;70907;-74
2023/08/30 02:03:11;;;;;;;17.90;11.20;;;;;;;24.63;100.00;98981.54;109411;1251;71457;-74
2023/08/30 02:05:52;;;;;;;15.00;11.20;;;;;;;24.61;100.00;98982.76;109409;1251;61676;-75
2023/08/30 02:08:20;;;;;;;18.50;12.10;;;;;;;24.61;100.00;98983.16;109347;1251;59027;-75
2023/08/30 02:10:53;;;;;;;14.50;12.00;;;;;;;24.59;100.00;98979.52;109362;1251;73395;-75
2023/08/30 02:13:24;;;;;;;20.10;12.80;;;;;;;24.59;100.00;98977.73;109410;1251;70891;-74
2023/08/30 02:15:55;;;;;;;20.90;12.40;;;;;;;24.58;100.00;98976.45;109183;1255;71257;-75
2023/08/30 02:18:24;;;;;;;15.30;10.90;;;;;;;24.56;100.00;98980.40;109410;1251;59659;-74
2023/08/30 02:20:52;;;;;;;22.60;12.80;;;;;;;24.54;100.00;98987.64;109234;1251;58862;-74
2023/08/30 02:23:23;;;;;;;18.60;13.00;;;;;;;24.51;100.00;98985.38;109333;1251;74157;-74
2023/08/30 02:25:50;;;;;;;17.50;11.60;;;;;;;24.49;100.00;98989.86;109357;1251;71123;-74
2023/08/30 02:28:18;;;;;;;13.60;11.50;;;;;;;24.47;100.00;98984.27;109455;1251;73115;-74
2023/08/30 02:30:45;;;;;;;17.10;12.40;;;;;;;24.44;100.00;98982.43;109371;1251;60580;-74
2023/08/30 02:33:13;;;;;;;18.30;12.10;;;;;;;24.42;100.00;98988.60;109424;1251;60122;-74
2023/08/30 02:35:41;;;;;;;13.90;12.20;;;;;;;24.40;100.00;98986.75;109400;1251;73340;-74
2023/08/30 02:38:08;;;;;;;14.90;11.60;;;;;;;24.39;100.00;98991.42;109382;1251;70017;-74
2023/08/30 02:40:36;;;;;;;22.20;12.40;;;;;;;24.38;100.00;98990.62;109408;1251;71404;-74
2023/08/30 02:43:04;;;;;;;16.10;12.50;;;;;;;24.37;100.00;98994.11;109441;1251;60033;-74
2023/08/30 02:45:31;;;;;;;18.90;11.40;;;;;;;24.36;100.00;98988.48;109461;1252;60022;-74
2023/08/30 02:47:59;;;;;;;16.20;12.00;;;;;;;24.37;100.00;98994.30;109423;1251;73759;-74
2023/08/30 02:50:26;;;;;;;16.40;11.80;;;;;;;24.35;100.00;98988.36;109408;1251;69632;-74
2023/08/30 02:52:54;;;;;;;21.50;12.30;;;;;;;24.35;100.00;98991.05;109423;1251;71400;-74
2023/08/30 02:55:21;;;;;;;20.90;13.20;;;;;;;24.35;100.00;98991.79;109392;1251;59353;-74
2023/08/30 02:57:49;;;;;;;18.50;13.20;;;;;;;24.32;100.00;98996.41;109328;1251;59208;-73
2023/08/30 03:00:16;;;;;;;19.80;13.20;;;;;;;24.25;100.00;98997.31;109442;1251;74760;-74
2023/08/30 03:02:46;;;;;;;14.30;11.70;;;;;;;24.20;100.00;98999.91;109331;1250;69654;-74
2023/08/30 03:05:14;;;;;;;14.50;12.10;;;;;;;24.18;100.00;98998.69;109301;1251;72454;-74
2023/08/30 03:07:42;;;;;;;18.00;12.70;;;;;;;24.16;100.00;98999.64;109410;1251;58984;-74
2023/08/30 03:10:09;;;;;;;17.00;12.60;;;;;;;24.14;100.00;99001.30;109338;1251;59996;-74
2023/08/30 03:12:37;;;;;;;28.00;13.40;;;;;;;24.13;100.00;99001.70;109310;1251;74623;-74
2023/08/30 03:15:05;;;;;;;16.70;12.30;;;;;;;24.12;100.00;98999.65;109427;1251;69992;-74
2023/08/30 03:17:33;;;;;;;19.80;13.40;;;;;;;24.11;100.00;98998.30;109448;1251;72673;-74
2023/08/30 03:20:00;;;;;;;17.10;12.00;;;;;;;24.11;100.00;99006.38;109349;1252;60977;-74
2023/08/30 03:22:28;;;;;;;16.50;11.70;;;;;;;24.11;100.00;99008.50;109328;1251;59113;-74
2023/08/30 03:24:56;;;;;;;15.30;12.10;;;;;;;24.10;100.00;99007.48;109415;1251;74628;-74
2023/08/30 03:27:23;;;;;;;19.30;13.20;;;;;;;24.10;100.00;99009.09;109383;1251;70752;-74
2023/08/30 03:29:51;;;;;;;20.40;13.10;;;;;;;24.10;100.00;99010.34;109432;1251;73584;-74
2023/08/30 03:32:19;;;;;;;18.10;12.60;;;;;;;24.09;100.00;99012.80;109388;1251;60531;-74
2023/08/30 03:34:48;;;;;;;18.90;13.70;;;;;;;24.08;100.00;99013.24;109407;1251;60511;-73
2023/08/30 03:37:17;;;;;;;20.10;12.10;;;;;;;24.07;100.00;99012.65;109292;1253;74613;-75
2023/08/30 03:39:45;;;;;;;19.40;13.10;;;;;;;24.07;100.00;99013.75;109338;1251;69746;-75
2023/08/30 03:42:12;;;;;;;17.50;11.70;;;;;;;24.06;100.00;99012.73;109439;1252;71426;-74
2023/08/30 03:44:40;;;;;;;15.90;12.30;;;;;;;24.07;100.00;99013.20;109394;1251;60606;-74
2023/08/30 03:47:07;;;;;;;16.50;13.50;;;;;;;24.08;100.00;99009.68;109406;1251;58843;-74
2023/08/30 03:49:35;;;;;;;17.50;12.20;;;;;;;24.08;100.00;99013.67;108574;1251;1002113;-74
2023/08/30 03:52:02;;;;;;;20.00;12.70;;;;;;;24.08;100.00;99009.71;109352;1251;72232;-74
2023/08/30 03:54:31;;;;;;;17.90;12.50;;;;;;;24.09;100.00;99008.14;109381;1251;63750;-74
2023/08/30 03:56:58;;;;;;;15.20;12.10;;;;;;;24.11;100.00;99004.60;109424;1251;60961;-74
2023/08/30 03:59:27;;;;;;;16.80;12.70;;;;;;;24.11;100.00;99000.61;109428;1251;59233;-74
2023/08/30 04:01:55;;;;;;;16.30;13.00;;;;;;;24.13;100.00;99001.55;109327;1250;73459;-75
2023/08/30 04:04:23;;;;;;;17.50;11.90;;;;;;;24.15;100.00;99004.06;109323;1251;70958;-74
2023/08/30 04:06:50;;;;;;;16.50;12.40;;;;;;;24.17;100.00;99003.67;109413;1251;71490;-73
2023/08/30 04:09:18;;;;;;;18.40;13.20;;;;;;;24.17;100.00;99003.25;109287;1251;58965;-73
2023/08/30 04:11:45;;;;;;;22.90;12.10;;;;;;;24.18;100.00;99006.63;109462;1251;59275;-74
2023/08/30 04:14:13;;;;;;;14.10;12.10;;;;;;;24.19;100.00;99002.87;109432;1251;73409;-74
2023/08/30 04:16:41;;;;;;;16.90;12.50;;;;;;;24.21;100.00;99003.79;109300;1251;71010;-74
2023/08/30 04:19:08;;;;;;;22.90;12.80;;;;;;;24.23;100.00;99002.36;109335;1255;71470;-74
2023/08/30 04:21:36;;;;;;;26.90;13.10;;;;;;;24.24;100.00;99005.06;109335;1251;60083;-74
2023/08/30 04:24:04;;;;;;;17.80;12.30;;;;;;;24.26;100.00;99005.77;109446;1251;59984;-74
2023/08/30 04:26:32;;;;;;;17.50;11.90;;;;;;;24.29;100.00;99001.41;109324;1251;65793;-74
2023/08/30 04:29:03;;;;;;;15.10;11.50;;;;;;;24.32;100.00;99002.90;109324;1251;70232;-74
2023/08/30 04:31:30;;;;;;;18.00;11.70;;;;;;;24.34;100.00;99004.95;109395;1251;71078;-74
2023/08/30 04:33:57;;;;;;;17.80;11.60;;;;;;;24.37;100.00;99007.91;109329;1251;60211;-75
2023/08/30 04:36:25;;;;;;;17.90;12.00;;;;;;;24.39;100.00;99006.61;109416;1251;58989;-75
2023/08/30 04:38:53;;;;;;;16.10;11.30;;;;;;;24.42;100.00;99007.62;109357;1251;74848;-75
2023/08/30 04:41:29;;;;;;;15.30;11.70;;;;;;;24.46;100.00;99011.14;109397;1251;60903;-74
2023/08/30 04:43:57;;;;;;;18.00;12.30;;;;;;;24.50;100.00;99010.55;109380;1251;70468;-74
2023/08/30 04:46:24;;;;;;;21.60;12.60;;;;;;;24.53;100.00;99006.68;109332;1251;59519;-75
2023/08/30 04:48:52;;;;;;;24.50;11.90;;;;;;;24.56;100.00;99004.48;109329;1251;59415;-74
2023/08/30 04:51:20;;;;;;;15.90;11.30;;;;;;;24.58;100.00;99001.70;109393;1251;75059;-74
2023/08/30 04:53:47;;;;;;;22.10;11.90;;;;;;;24.61;100.00;98997.49;109350;1251;70758;-75
2023/08/30 04:56:15;;;;;;;16.60;11.50;;;;;;;24.63;100.00;98995.13;109420;1251;72644;-74
2023/08/30 04:58:42;;;;;;;16.90;11.60;;;;;;;24.65;100.00;98997.22;109455;1252;61689;-74
2023/08/30 05:01:13;;;;;;;20.50;12.20;;;;;;;24.69;100.00;98999.21;109430;1251;60057;-74
2023/08/30 05:03:42;;;;;;;20.20;12.10;;;;;;;24.73;100.00;98992.34;109371;1253;74623;-74
2023/08/30 05:06:15;;;;;;;18.70;11.20;;;;;;;24.77;100.00;98994.05;109355;1251;71662;-74
2023/08/30 05:08:43;;;;;;;25.30;11.10;;;;;;;24.83;100.00;98990.22;109321;1251;71708;-74
2023/08/30 05:11:11;;;;;;;21.30;11.30;;;;;;;24.91;100.00;98993.52;109392;1251;60014;-75
2023/08/30 05:13:39;;;;;;;13.70;11.00;;;;;;;25.01;100.00;98996.27;109404;1251;59073;-75
2023/08/30 05:16:06;;;;;;;13.50;11.40;;;;;;;25.10;100.00;98994.08;109412;1253;74663;-75
2023/08/30 05:18:34;;;;;;;15.80;11.10;;;;;;;25.16;100.00;98988.38;109370;1251;70791;-74
2023/08/30 05:21:03;;;;;;;21.80;12.00;;;;;;;25.22;100.00;98989.40;109398;1251;71159;-74
2023/08/30 05:23:31;;;;;;;21.70;10.80;;;;;;;25.28;100.00;98993.88;109334;1251;59454;-75
2023/08/30 05:25:58;;;;;;;22.20;11.50;;;;;;;25.33;100.00;98989.95;109443;1251;59394;-74
2023/08/30 05:28:26;;;;;;;21.20;11.50;;;;;;;25.39;100.00;98993.20;109349;1251;74473;-74
2023/08/30 05:30:53;;;;;;;15.10;11.40;;;;;;;25.47;100.00;98993.11;109317;1251;71027;-75
2023/08/30 05:33:44;;;;;;;19.20;10.40;;;;;;;25.59;100.00;98995.48;109361;1251;70861;-74
2023/08/30 05:36:24;;;;;;;17.50;9.80;;;;;;;25.70;100.00;98989.32;109326;1251;60038;-75
2023/08/30 05:39:00;;;;;;;16.60;10.80;;;;;;;25.78;100.00;98982.55;109352;1251;60123;-74
2023/08/30 05:41:36;;;;;;;21.80;10.60;;;;;;;25.84;100.00;98979.74;109204;1251;74659;-75
2023/08/30 05:44:04;;;;;;;13.70;10.20;;;;;;;25.91;100.00;98979.08;109442;1251;71224;-73
2023/08/30 05:46:32;;;;;;;22.80;10.10;;;;;;;25.99;100.00;98976.16;109386;1251;72937;-74
2023/08/30 05:49:02;;;;;;;18.00;9.90;;;;;;;26.08;100.00;98978.58;109376;1251;60540;-75
2023/08/30 05:51:30;;;;;;;28.50;10.50;;;;;;;26.17;100.00;98979.96;109455;1251;59980;-74
2023/08/30 05:53:57;;;;;;;17.40;9.60;;;;;;;26.24;100.00;98978.66;109408;1251;73427;-74
2023/08/30 05:56:25;;;;;;;21.00;10.20;;;;;;;26.31;100.00;98982.78;109411;1251;71173;-74
2023/08/30 05:58:52;;;;;;;18.60;9.20;;;;;;;26.38;100.00;98981.64;109346;1251;71420;-75
2023/08/30 06:01:20;;;;;;;18.50;9.20;;;;;;;26.43;100.00;98981.44;109383;1251;59035;-74
2023/08/30 06:03:47;;;;;;;15.80;8.80;;;;;;;26.46;100.00;98981.16;109483;1251;59352;-74
2023/08/30 06:06:15;;;;;;;18.30;9.90;;;;;;;26.48;100.00;98976.58;109430;1255;74677;-76
2023/08/30 06:08:43;;;;;;;21.20;8.50;;;;;;;26.48;100.00;98975.71;109453;1251;70728;-74
2023/08/30 06:11:10;;;;;;;19.50;8.80;;;;;;;26.49;100.00;98977.26;109369;1251;72679;-75
2023/08/30 06:13:37;;;;;;;15.90;9.20;;;;;;;26.52;100.00;98980.52;109413;1251;60083;-74
2023/08/30 06:16:05;;;;;;;18.90;9.20;;;;;;;26.55;100.00;98978.94;109418;1251;60125;-74
2023/08/30 06:18:33;;;;;;;21.10;9.80;;;;;;;26.60;100.00;98980.02;109460;1251;75074;-75
2023/08/30 06:21:00;;;;;;;20.80;9.40;;;;;;;26.63;100.00;98980.85;109421;1255;69854;-74
2023/08/30 06:23:27;;;;;;;18.40;9.20;;;;;;;26.65;100.00;98978.19;109402;1251;71396;-74
2023/08/30 06:25:56;;;;;;;13.40;9.40;;;;;;;26.67;100.00;98984.77;109404;1251;60088;-75
2023/08/30 06:28:23;;;;;;;13.60;9.20;;;;;;;26.68;100.00;98982.17;108676;1253;1002169;-74
2023/08/30 06:30:51;;;;;;;12.30;9.00;;;;;;;26.71;100.00;98983.14;109431;1251;73439;-74
2023/08/30 06:33:18;;;;;;;15.30;9.80;;;;;;;26.75;100.00;98982.33;109422;1253;69945;-74
2023/08/30 06:35:48;;;;;;;21.30;9.70;;;;;;;26.78;100.00;98983.83;109381;1251;71454;-74
2023/08/30 06:38:16;;;;;;;23.90;9.60;;;;;;;26.81;100.00;98981.24;109392;1251;59014;-75
2023/08/30 06:40:44;;;;;;;17.00;9.30;;;;;;;26.86;100.00;98983.81;109458;1251;59216;-74
2023/08/30 06:43:12;;;;;;;14.10;9.10;;;;;;;26.90;100.00;98982.45;109391;1251;66146;-75
2023/08/30 06:45:41;;;;;;;26.90;9.40;;;;;;;26.95;100.00;98986.09;109435;1251;70734;-76
2023/08/30 06:48:09;;;;;;;18.80;9.80;;;;;;;27.01;100.00;98983.95;109416;1251;72683;-76
2023/08/30 06:50:37;;;;;;;21.40;9.10;;;;;;;27.07;100.00;98986.16;109458;1252;60023;-76
2023/08/30 06:53:04;;;;;;;15.90;9.20;;;;;;;27.13;100.00;98986.80;109445;1251;59058;-75
2023/08/30 06:55:33;;;;;;;14.80;9.40;;;;;;;27.19;100.00;98986.64;109424;1253;75193;-74
2023/08/30 06:58:00;;;;;;;18.70;9.20;;;;;;;27.24;100.00;98986.77;109437;1253;69404;-74
2023/08/30 07:00:28;;;;;;;15.10;9.80;;;;;;;27.30;100.00;98989.33;109447;1251;72724;-75
2023/08/30 07:02:56;;;;;;;17.70;9.30;;;;;;;27.37;100.00;98990.40;109451;1252;60241;-74
2023/08/30 07:05:24;;;;;;;18.50;9.00;;;;;;;27.43;100.00;98990.38;109406;1251;60112;-75
2023/08/30 07:07:51;;;;;;;16.80;9.00;;;;;;;27.51;100.00;98990.41;109411;1253;75061;-75
2023/08/30 07:10:19;;;;;;;16.30;9.50;;;;;;;27.58;100.00;98986.55;109398;1251;70821;-74
2023/08/30 07:12:48;;;;;;;18.00;9.00;;;;;;;27.64;100.00;98984.77;109356;1251;71195;-74
2023/08/30 07:15:19;;;;;;;16.90;8.90;;;;;;;27.69;100.00;98986.01;109436;1251;60011;-74
2023/08/30 07:17:46;;;;;;;16.00;9.20;;;;;;;27.73;100.00;98982.23;109412;1251;60828;-75
2023/08/30 07:20:20;;;;;;;;;;;;;;;27.78;100.00;98979.58;109403;1251;74656;-75
2023/08/30 07:22:48;;;;;;;13.80;8.70;;;;;;;27.83;100.00;98984.41;109393;1252;71395;-75
2023/08/30 07:25:15;;;;;;;10.70;8.40;;;;;;;27.88;100.00;98989.45;109441;1252;73093;-75
2023/08/30 07:27:43;;;;;;;18.90;8.70;;;;;;;27.92;100.00;98987.11;109386;1253;59049;-76
2023/08/30 07:30:11;;;;;;;25.00;8.70;;;;;;;27.97;100.00;98984.02;109419;1251;58955;-75
2023/08/30 07:32:38;;;;;;;11.40;8.80;;;;;;;28.04;100.00;98984.11;109439;1253;73366;-74
2023/08/30 07:35:06;;;;;;;14.70;8.70;;;;;;;28.12;100.00;98986.66;109432;1251;62135;-74
2023/08/30 07:37:34;;;;;;;21.30;8.80;;;;;;;28.20;100.00;98986.85;109395;1251;63742;-76
2023/08/30 07:40:04;;;;;;;12.70;8.80;;;;;;;28.28;100.00;98985.11;109393;1251;60145;-73
2023/08/30 07:42:32;;;;;;;13.00;9.20;;;;;;;28.37;100.00;98981.05;109407;1250;59026;-75
2023/08/30 07:44:59;;;;;;;11.70;8.90;;;;;;;28.45;100.00;98980.07;109389;1255;66270;-75
2023/08/30 07:47:26;;;;;;;16.40;8.90;;;;;;;28.54;100.00;98974.69;109443;1251;63029;-75
2023/08/30 07:49:54;;;;;;;16.20;9.40;;;;;;;28.63;100.00;98973.73;109447;1252;63758;-75
2023/08/30 07:52:21;;;;;;;10.60;9.00;;;;;;;28.72;100.00;98970.42;109380;1251;59296;-75
2023/08/30 07:55:09;;;;;;;18.10;8.30;;;;;;;28.80;100.00;98968.86;109450;1251;59066;-75
2023/08/30 07:57:37;;;;;;;13.70;7.70;;;;;;;28.87;100.00;98965.84;109421;1251;65639;-74
2023/08/30 08:00:05;;;;;;;11.70;8.00;;;;;;;28.94;100.00;98964.19;109408;1251;62287;-74
2023/08/30 08:02:38;;;;;;;18.80;8.10;;;;;;;29.04;100.00;98964.83;109413;1251;62543;-74
2023/08/30 08:05:05;;;;;;;8.70;6.20;;;;;;;29.12;100.00;98959.54;109443;1253;58986;-75
2023/08/30 08:07:33;;;;;;;14.50;7.50;;;;;;;29.19;100.00;98957.95;109434;1251;59151;-75
2023/08/30 08:10:00;;;;;;;11.90;8.30;;;;;;;29.24;100.00;98961.45;109404;1251;65785;-76
2023/08/30 08:12:28;;;;;;;17.40;7.80;;;;;;;29.25;100.00;98966.92;109414;1251;61053;-75
2023/08/30 08:14:55;;;;;;;17.30;7.20;;;;;;;29.28;100.00;98965.70;109349;1256;63767;-75
2023/08/30 08:17:23;;;;;;;12.20;7.10;;;;;;;29.33;100.00;98965.48;109440;1251;59418;-75
2023/08/30 08:19:50;;;;;;;10.00;6.10;;;;;;;29.39;100.00;98964.42;109478;1251;59248;-75
2023/08/30 08:22:18;;;;;;;8.40;6.70;;;;;;;29.46;100.00;98962.11;109444;1251;65762;-75
2023/08/30 08:24:45;;;;;;;12.10;5.80;;;;;;;29.55;100.00;98957.48;109440;1251;60903;-75
2023/08/30 08:27:14;;;;;;;8.30;5.80;;;;;;;29.65;100.00;98956.47;109406;1252;63729;-75
2023/08/30 08:29:41;;;;;;;12.30;5.00;;;;;;;29.76;100.00;98960.95;109407;1255;59088;-75
2023/08/30 08:32:09;;;;;;;9.10;6.40;;;;;;;29.82;100.00;98957.87;109460;1251;59672;-75
2023/08/30 08:34:36;;;;;;;9.10;5.30;;;;;;;29.85;100.00;98955.47;109413;1251;66022;-74
2023/08/30 08:37:03;;;;;;;10.50;6.00;;;;;;;29.91;100.00;98958.31;109459;1251;62124;-74
2023/08/30 08:39:31;;;;;;;16.50;5.70;;;;;;;30.00;100.00;98956.14;109420;1253;63695;-75
2023/08/30 08:41:58;;;;;;;13.40;6.00;;;;;;;30.09;100.00;98957.02;109401;1251;59345;-73
2023/08/30 08:44:26;;;;;;;14.00;5.60;;;;;;;30.16;100.00;98955.84;109467;1251;59050;-74
2023/08/30 08:46:54;;;;;;;8.40;5.40;;;;;;;30.19;100.00;98951.91;109442;1251;66362;-75
2023/08/30 08:49:21;;;;;;;12.80;6.10;;;;;;;30.25;100.00;98949.71;109379;1251;62113;-75
2023/08/30 08:51:49;;;;;;;23.40;5.90;;;;;;;30.33;100.00;98951.95;109356;1251;63759;-76
2023/08/30 08:54:16;;;;;;;11.50;5.40;;;;;;;30.41;100.00;98948.71;109351;1251;59298;-75
2023/08/30 08:56:44;;;;;;;11.30;5.90;;;;;;;30.47;100.00;98936.66;109397;1251;58910;-76
2023/08/30 08:59:11;;;;;;;19.90;6.10;;;;;;;30.53;100.00;98939.91;109397;1256;73734;-74
2023/08/30 09:01:42;;;;;;;15.70;5.70;;;;;;;30.62;100.00;98936.57;109434;1251;62634;-75
2023/08/30 09:04:10;;;;;;;8.60;5.30;;;;;;;30.77;100.00;98932.33;109397;1254;63795;-75
2023/08/30 09:06:39;;;;;;;12.00;6.00;;;;;;;30.94;100.00;98926.36;109424;1251;58979;-76
2023/08/30 09:09:08;;;;;;;10.30;5.40;;;;;;;31.07;100.00;98920.06;109448;1251;59242;-74
2023/08/30 09:11:36;;;;;;;12.70;5.30;;;;;;;31.19;100.00;98916.90;109417;1251;65803;-75
2023/08/30 09:14:16;;;;;;;22.20;5.70;;;;;;;31.34;100.00;98916.30;109409;1251;60938;-75
2023/08/30 09:17:01;;;;;;;11.20;5.50;;;;;;;31.46;100.00;98917.59;109419;1251;64397;-75
2023/08/30 09:19:29;;;;;;;11.40;5.70;;;;;;;31.52;100.00;98913.55;109453;1253;58936;-74
2023/08/30 09:21:57;;;;;;;12.10;5.40;;;;;;;31.55;100.00;98916.09;109438;1251;59228;-75
2023/08/30 09:24:25;;;;;;;5.70;4.60;;;;;;;31.58;100.00;98912.63;109427;1251;65784;-75
2023/08/30 09:26:53;;;;;;;9.20;5.20;;;;;;;31.65;100.00;98909.13;109405;1251;62263;-75
2023/08/30 09:29:21;;;;;;;9.80;4.70;;;;;;;31.74;100.00;98908.61;109449;1251;63762;-75
2023/08/30 09:31:55;;;;;;;10.10;4.80;;;;;;;31.82;100.00;98904.77;109360;1251;59503;-74
2023/08/30 09:34:25;;;;;;;8.70;4.60;;;;;;;31.92;100.00;98907.17;109452;1251;59013;-75
2023/08/30 09:36:53;;;;;;;12.60;5.00;;;;;;;32.02;100.00;98900.96;109457;1251;64529;-75
2023/08/30 09:39:21;;;;;;;10.70;4.90;;;;;;;32.10;100.00;98898.32;109453;1253;61731;-74
2023/08/30 09:41:49;;;;;;;8.30;4.70;;;;;;;32.21;100.00;98894.56;109394;1251;62482;-76
2023/08/30 09:44:21;;;;;;;9.60;4.70;;;;;;;32.29;100.00;98890.48;109395;1253;59006;-74
2023/08/30 09:46:55;;;;;;;8.40;5.10;;;;;;;32.30;100.00;98890.05;109413;1253;59480;-74
2023/08/30 09:49:25;;;;;;;10.70;4.90;;;;;;;32.30;100.00;98884.06;109421;1253;65806;-75
2023/08/30 09:51:53;;;;;;;14.30;4.60;;;;;;;32.30;100.00;98879.80;109428;1251;62793;-74
2023/08/30 09:54:23;;;;;;;13.00;4.60;;;;;;;32.35;100.00;98876.73;109425;1253;62554;-75
2023/08/30 09:56:53;;;;;;;7.30;4.70;;;;;;;32.47;100.00;98879.89;109393;1253;59126;-75
2023/08/30 09:59:21;;;;;;;7.00;4.80;;;;;;;32.56;100.00;98872.94;109446;1251;59061;-74
2023/08/30 10:01:49;;;;;;;8.90;4.20;;;;;;;32.63;100.00;98873.13;109458;1251;66237;-75
2023/08/30 10:04:16;;;;;;;8.90;4.80;;;;;;;32.69;100.00;98872.14;109434;1251;60888;-76
2023/08/30 10:06:44;;;;;;;6.60;4.60;;;;;;;32.74;100.00;98871.02;109412;1253;63874;-76
2023/08/30 10:09:12;;;;;;;13.00;4.40;;;;;;;32.83;100.00;98864.25;109358;1251;59005;-75
2023/08/30 10:11:42;;;;;;;9.90;4.40;;;;;;;32.94;100.00;98862.04;109468;1251;59090;-75
2023/08/30 10:14:10;;;;;;;14.00;4.40;;;;;;;33.05;100.00;98859.27;109418;1251;65989;-74
2023/08/30 10:16:42;;;;;;;8.10;4.60;;;;;;;33.12;99.99;98862.44;109358;1251;61149;-75
2023/08/30 10:19:23;;;;;;;17.50;4.70;;;;;;;33.20;99.99;98865.58;109411;1251;62427;-74
2023/08/30 10:22:17;;;;;;;11.10;4.20;;;;;;;33.29;100.00;98864.02;109434;1256;59227;-75
2023/08/30 10:24:46;;;;;;;10.30;4.30;;;;;;;33.34;100.00;98858.35;109465;1251;58901;-74
2023/08/30 10:27:30;;;;;;;8.80;4.00;;;;;;;33.32;94.13;98854.63;109365;1253;66184;-74
2023/08/30 10:29:58;;;;;;;9.00;4.20;;;;;;;33.26;96.05;98853.89;109382;1251;62327;-74
2023/08/30 10:32:25;;;;;;;8.50;4.10;;;;;;;33.30;95.78;98855.43;109373;1251;63781;-74
2023/08/30 10:34:53;;;;;;;10.80;4.30;;;;;;;33.30;91.24;98848.41;109436;1253;59026;-75
2023/08/30 10:37:24;;;;;;;11.20;4.60;;;;;;;33.30;96.80;98844.90;109389;1255;59289;-75
2023/08/30 10:39:51;;;;;;;10.70;4.30;;;;;;;33.34;100.00;98841.44;109438;1251;64425;-76
2023/08/30 10:42:22;;;;;;;13.70;5.00;;;;;;;33.40;100.00;98839.98;109414;1251;61059;-75
2023/08/30 10:44:56;;;;;;;11.20;4.80;;;;;;;33.43;100.00;98842.69;109290;1255;63720;-75
2023/08/30 10:47:40;;;;;;;11.30;4.30;;;;;;;33.35;100.00;98833.64;109408;1251;58985;-74
2023/08/30 10:50:12;;;;;;;11.30;4.90;;;;;;;33.24;100.00;98833.14;109455;1252;59254;-75
2023/08/30 10:52:40;;;;;;;13.00;5.50;;;;;;;33.21;100.00;98830.02;109428;1251;64543;-75
2023/08/30 10:55:11;;;;;;;8.60;4.70;;;;;;;33.27;100.00;98830.36;109413;1252;62628;-75
2023/08/30 10:57:46;;;;;;;12.90;5.30;;;;;;;33.34;100.00;98827.64;109382;1251;63878;-77
2023/08/30 11:00:20;;;;;;;10.00;4.60;;;;;;;33.38;100.00;98819.81;109393;1251;59105;-74
2023/08/30 11:02:49;;;;;;;9.80;5.30;;;;;;;33.39;100.00;98818.59;109405;1251;59039;-75
2023/08/30 11:05:18;;;;;;;9.10;4.70;;;;;;;33.42;100.00;98813.74;109424;1251;66166;-75
2023/08/30 11:07:46;;;;;;;12.70;4.70;;;;;;;33.47;100.00;98808.30;109387;1251;60913;-74
2023/08/30 11:10:14;;;;;;;11.40;4.10;;;;;;;33.44;99.18;98801.11;109417;1252;63930;-73
2023/08/30 11:12:41;;;;;;;10.50;4.50;;;;;;;33.36;99.56;98800.95;109417;1251;59948;-74
2023/08/30 11:15:09;;;;;;;9.70;5.00;;;;;;;33.30;100.00;98796.79;109431;1255;59057;-75